sensor_id;sensor_type;location;lat;lon;timestamp;pressure;altitude;pressure_sealevel;temperature;humidity
74578;BME280;63173;49.086;33.418;2022-10-16T00:00:31;101772.44;;;3.01;78.10
74578;BME280;63173;49.086;33.418;2022-10-16T00:02:57;101776.53;;;3.03;77.81
74578;BME280;63173;49.086;33.418;2022-10-16T00:05:23;101777.38;;;2.97;77.21
74578;BME280;63173;49.086;33.418;2022-10-16T00:07:48;101781.31;;;3.08;77.17
74578;BME280;63173;49.086;33.418;2022-10-16T00:10:14;101780.06;;;2.97;77.96
74578;BME280;63173;49.086;33.418;2022-10-16T00:12:39;101779.22;;;2.97;78.17
74578;BME280;63173;49.086;33.418;2022-10-16T00:15:05;101778.44;;;3.03;77.82
74578;BME280;63173;49.086;33.418;2022-10-16T00:17:31;101769.75;;;3.01;77.90
74578;BME280;63173;49.086;33.418;2022-10-16T00:19:56;101770.94;;;2.92;77.35
74578;BME280;63173;49.086;33.418;2022-10-16T00:22:22;101779.59;;;2.94;77.93
74578;BME280;63173;49.086;33.418;2022-10-16T00:24:48;101776.75;;;2.95;78.17
74578;BME280;63173;49.086;33.418;2022-10-16T00:27:13;101777.78;;;3.01;78.21
74578;BME280;63173;49.086;33.418;2022-10-16T00:29:39;101785.81;;;2.88;78.00
74578;BME280;63173;49.086;33.418;2022-10-16T00:32:04;101786.56;;;2.75;77.93
74578;BME280;63173;49.086;33.418;2022-10-16T00:34:29;101786.97;;;2.72;79.25
74578;BME280;63173;49.086;33.418;2022-10-16T00:36:55;101790.84;;;2.63;79.48
74578;BME280;63173;49.086;33.418;2022-10-16T00:39:20;101780.41;;;2.81;78.96
74578;BME280;63173;49.086;33.418;2022-10-16T00:41:47;101794.66;;;2.81;78.11
74578;BME280;63173;49.086;33.418;2022-10-16T00:47:30;101790.44;;;2.66;79.31
74578;BME280;63173;49.086;33.418;2022-10-16T00:50:02;101794.16;;;2.65;79.14
74578;BME280;63173;49.086;33.418;2022-10-16T00:52:30;101797.28;;;2.68;78.98
74578;BME280;63173;49.086;33.418;2022-10-16T00:54:56;101798.69;;;2.64;78.91
74578;BME280;63173;49.086;33.418;2022-10-16T00:57:23;101799.53;;;2.65;79.42
74578;BME280;63173;49.086;33.418;2022-10-16T00:59:49;101809.13;;;2.53;79.92
74578;BME280;63173;49.086;33.418;2022-10-16T01:02:16;101802.50;;;2.49;79.80
74578;BME280;63173;49.086;33.418;2022-10-16T01:04:45;101806.31;;;2.61;79.05
74578;BME280;63173;49.086;33.418;2022-10-16T01:12:36;101815.91;;;2.49;79.91
74578;BME280;63173;49.086;33.418;2022-10-16T01:17:58;101815.09;;;2.48;79.65
74578;BME280;63173;49.086;33.418;2022-10-16T01:20:56;101830.97;;;2.50;79.81
74578;BME280;63173;49.086;33.418;2022-10-16T01:28:54;101827.56;;;2.35;80.09
74578;BME280;63173;49.086;33.418;2022-10-16T01:31:24;101833.78;;;2.35;80.14
74578;BME280;63173;49.086;33.418;2022-10-16T01:33:58;101829.16;;;2.23;80.70
74578;BME280;63173;49.086;33.418;2022-10-16T01:36:39;101829.78;;;2.25;80.59
74578;BME280;63173;49.086;33.418;2022-10-16T01:39:09;101840.06;;;2.21;80.47
74578;BME280;63173;49.086;33.418;2022-10-16T01:41:49;101840.84;;;2.15;81.02
74578;BME280;63173;49.086;33.418;2022-10-16T01:44:28;101837.00;;;2.24;80.63
74578;BME280;63173;49.086;33.418;2022-10-16T01:46:55;101844.16;;;2.17;80.79
74578;BME280;63173;49.086;33.418;2022-10-16T01:49:23;101844.81;;;2.19;80.72
74578;BME280;63173;49.086;33.418;2022-10-16T01:51:54;101849.59;;;2.03;80.98
74578;BME280;63173;49.086;33.418;2022-10-16T01:54:23;101846.34;;;2.07;81.04
74578;BME280;63173;49.086;33.418;2022-10-16T01:56:51;101850.44;;;2.03;81.03
74578;BME280;63173;49.086;33.418;2022-10-16T01:59:20;101850.09;;;2.13;80.56
74578;BME280;63173;49.086;33.418;2022-10-16T02:01:52;101853.97;;;2.10;80.73
74578;BME280;63173;49.086;33.418;2022-10-16T02:05:02;101847.84;;;1.88;81.16
74578;BME280;63173;49.086;33.418;2022-10-16T02:07:18;101849.47;;;1.89;80.91
74578;BME280;63173;49.086;33.418;2022-10-16T02:09:43;101855.31;;;1.93;81.10
74578;BME280;63173;49.086;33.418;2022-10-16T02:12:18;101855.75;;;1.97;81.03
74578;BME280;63173;49.086;33.418;2022-10-16T02:14:46;101854.50;;;1.99;80.95
74578;BME280;63173;49.086;33.418;2022-10-16T02:17:14;101852.94;;;1.83;81.45
74578;BME280;63173;49.086;33.418;2022-10-16T02:19:41;101841.00;;;1.65;81.83
74578;BME280;63173;49.086;33.418;2022-10-16T02:22:09;101848.09;;;1.72;81.77
74578;BME280;63173;49.086;33.418;2022-10-16T02:24:54;101855.13;;;1.73;82.20
74578;BME280;63173;49.086;33.418;2022-10-16T02:27:30;101859.81;;;1.71;82.40
74578;BME280;63173;49.086;33.418;2022-10-16T02:30:07;101858.75;;;1.66;82.04
74578;BME280;63173;49.086;33.418;2022-10-16T02:32:34;101861.03;;;1.69;81.47
74578;BME280;63173;49.086;33.418;2022-10-16T02:35:01;101859.75;;;1.65;83.06
74578;BME280;63173;49.086;33.418;2022-10-16T02:37:28;101861.88;;;1.69;82.08
74578;BME280;63173;49.086;33.418;2022-10-16T02:39:55;101858.78;;;1.72;82.44
74578;BME280;63173;49.086;33.418;2022-10-16T02:42:28;101862.44;;;1.65;82.79
74578;BME280;63173;49.086;33.418;2022-10-16T02:44:53;101858.03;;;1.57;82.42
74578;BME280;63173;49.086;33.418;2022-10-16T02:47:19;101865.25;;;1.57;82.37
74578;BME280;63173;49.086;33.418;2022-10-16T02:49:44;101865.69;;;1.60;82.66
74578;BME280;63173;49.086;33.418;2022-10-16T02:52:10;101873.44;;;1.55;82.83
74578;BME280;63173;49.086;33.418;2022-10-16T02:54:35;101882.75;;;1.59;82.78
74578;BME280;63173;49.086;33.418;2022-10-16T02:57:00;101873.00;;;1.52;82.84
74578;BME280;63173;49.086;33.418;2022-10-16T02:59:26;101875.88;;;1.50;82.64
74578;BME280;63173;49.086;33.418;2022-10-16T03:01:51;101883.00;;;1.43;83.39
74578;BME280;63173;49.086;33.418;2022-10-16T03:04:17;101890.59;;;1.40;83.15
74578;BME280;63173;49.086;33.418;2022-10-16T03:06:42;101890.66;;;1.46;83.11
74578;BME280;63173;49.086;33.418;2022-10-16T03:09:07;101892.00;;;1.36;83.55
74578;BME280;63173;49.086;33.418;2022-10-16T03:11:33;101895.75;;;1.41;83.38
74578;BME280;63173;49.086;33.418;2022-10-16T03:13:58;101889.31;;;1.36;83.81
74578;BME280;63173;49.086;33.418;2022-10-16T03:16:24;101890.75;;;1.38;83.11
74578;BME280;63173;49.086;33.418;2022-10-16T03:18:49;101890.47;;;1.48;82.80
74578;BME280;63173;49.086;33.418;2022-10-16T03:21:15;101885.78;;;1.35;82.89
74578;BME280;63173;49.086;33.418;2022-10-16T03:23:40;101891.25;;;1.42;83.60
74578;BME280;63173;49.086;33.418;2022-10-16T03:26:06;101892.50;;;1.46;82.61
74578;BME280;63173;49.086;33.418;2022-10-16T03:28:31;101899.28;;;1.42;83.16
74578;BME280;63173;49.086;33.418;2022-10-16T03:30:57;101903.69;;;1.49;84.16
74578;BME280;63173;49.086;33.418;2022-10-16T03:33:22;101899.19;;;1.35;83.59
74578;BME280;63173;49.086;33.418;2022-10-16T03:35:52;101901.31;;;1.40;83.57
74578;BME280;63173;49.086;33.418;2022-10-16T03:38:18;101899.06;;;1.43;83.11
74578;BME280;63173;49.086;33.418;2022-10-16T03:40:44;101893.91;;;1.42;83.80
74578;BME280;63173;49.086;33.418;2022-10-16T03:43:09;101903.81;;;1.27;84.37
74578;BME280;63173;49.086;33.418;2022-10-16T03:45:34;101900.31;;;1.26;83.40
74578;BME280;63173;49.086;33.418;2022-10-16T03:48:00;101899.84;;;1.23;84.57
74578;BME280;63173;49.086;33.418;2022-10-16T03:50:25;101906.31;;;1.28;83.64
74578;BME280;63173;49.086;33.418;2022-10-16T03:52:51;101911.84;;;1.27;83.74
74578;BME280;63173;49.086;33.418;2022-10-16T03:55:16;101908.34;;;1.26;84.53
74578;BME280;63173;49.086;33.418;2022-10-16T03:57:42;101911.91;;;1.33;83.49
74578;BME280;63173;49.086;33.418;2022-10-16T04:00:08;101902.09;;;1.19;84.60
74578;BME280;63173;49.086;33.418;2022-10-16T04:02:33;101916.56;;;1.25;84.21
74578;BME280;63173;49.086;33.418;2022-10-16T04:04:59;101918.22;;;1.26;83.67
74578;BME280;63173;49.086;33.418;2022-10-16T04:07:24;101926.78;;;1.21;83.91
74578;BME280;63173;49.086;33.418;2022-10-16T04:09:50;101922.75;;;1.11;84.40
74578;BME280;63173;49.086;33.418;2022-10-16T04:12:17;101932.31;;;1.20;84.06
74578;BME280;63173;49.086;33.418;2022-10-16T04:14:42;101930.03;;;1.17;83.75
74578;BME280;63173;49.086;33.418;2022-10-16T04:17:08;101928.94;;;1.11;84.89
74578;BME280;63173;49.086;33.418;2022-10-16T04:19:33;101922.47;;;1.06;84.57
74578;BME280;63173;49.086;33.418;2022-10-16T04:21:58;101928.47;;;1.08;84.67
74578;BME280;63173;49.086;33.418;2022-10-16T04:24:24;101933.06;;;0.99;84.75
74578;BME280;63173;49.086;33.418;2022-10-16T04:26:49;101935.28;;;1.10;84.31
74578;BME280;63173;49.086;33.418;2022-10-16T04:29:15;101933.53;;;1.03;85.76
74578;BME280;63173;49.086;33.418;2022-10-16T04:31:40;101938.25;;;1.15;84.55
74578;BME280;63173;49.086;33.418;2022-10-16T04:34:05;101926.63;;;1.08;85.01
74578;BME280;63173;49.086;33.418;2022-10-16T04:36:31;101932.44;;;1.12;84.62
74578;BME280;63173;49.086;33.418;2022-10-16T04:38:56;101932.91;;;1.15;83.81
74578;BME280;63173;49.086;33.418;2022-10-16T04:41:22;101941.38;;;1.19;84.49
74578;BME280;63173;49.086;33.418;2022-10-16T04:43:47;101943.13;;;1.26;84.14
74578;BME280;63173;49.086;33.418;2022-10-16T04:46:13;101942.38;;;1.18;84.41
74578;BME280;63173;49.086;33.418;2022-10-16T04:48:38;101941.84;;;1.22;84.37
74578;BME280;63173;49.086;33.418;2022-10-16T04:51:04;101941.16;;;1.35;84.18
74578;BME280;63173;49.086;33.418;2022-10-16T04:53:30;101946.28;;;1.30;84.39
74578;BME280;63173;49.086;33.418;2022-10-16T04:55:55;101941.47;;;1.40;83.78
74578;BME280;63173;49.086;33.418;2022-10-16T04:58:22;101945.09;;;1.53;82.92
74578;BME280;63173;49.086;33.418;2022-10-16T05:00:47;101941.72;;;1.45;83.05
74578;BME280;63173;49.086;33.418;2022-10-16T05:03:13;101951.88;;;1.49;83.23
74578;BME280;63173;49.086;33.418;2022-10-16T05:05:45;101951.09;;;1.55;82.53
74578;BME280;63173;49.086;33.418;2022-10-16T05:08:12;101948.81;;;1.52;83.10
74578;BME280;63173;49.086;33.418;2022-10-16T05:10:38;101963.09;;;1.59;82.48
74578;BME280;63173;49.086;33.418;2022-10-16T05:13:04;101973.06;;;1.65;82.64
74578;BME280;63173;49.086;33.418;2022-10-16T05:15:29;101970.19;;;1.67;82.88
74578;BME280;63173;49.086;33.418;2022-10-16T05:17:55;101978.25;;;1.67;81.96
74578;BME280;63173;49.086;33.418;2022-10-16T05:20:22;101981.66;;;1.75;81.92
74578;BME280;63173;49.086;33.418;2022-10-16T05:22:47;101986.44;;;1.80;81.51
74578;BME280;63173;49.086;33.418;2022-10-16T05:25:13;101990.09;;;1.93;81.54
74578;BME280;63173;49.086;33.418;2022-10-16T05:27:38;101989.16;;;2.01;80.88
74578;BME280;63173;49.086;33.418;2022-10-16T05:30:04;102006.47;;;1.99;80.51
74578;BME280;63173;49.086;33.418;2022-10-16T05:32:30;101995.34;;;2.02;81.31
74578;BME280;63173;49.086;33.418;2022-10-16T05:34:56;102003.63;;;2.07;81.20
74578;BME280;63173;49.086;33.418;2022-10-16T05:37:21;102004.72;;;2.12;81.11
74578;BME280;63173;49.086;33.418;2022-10-16T05:39:46;102005.38;;;2.14;80.62
74578;BME280;63173;49.086;33.418;2022-10-16T05:42:12;102016.53;;;2.18;80.44
74578;BME280;63173;49.086;33.418;2022-10-16T05:44:37;102018.09;;;2.27;80.66
74578;BME280;63173;49.086;33.418;2022-10-16T05:47:03;102019.38;;;2.31;80.76
74578;BME280;63173;49.086;33.418;2022-10-16T05:49:28;102022.75;;;2.39;80.02
74578;BME280;63173;49.086;33.418;2022-10-16T05:51:53;102021.22;;;2.51;80.07
74578;BME280;63173;49.086;33.418;2022-10-16T05:54:19;102027.34;;;2.66;79.52
74578;BME280;63173;49.086;33.418;2022-10-16T05:56:44;102022.78;;;2.67;79.54
74578;BME280;63173;49.086;33.418;2022-10-16T05:59:10;102033.66;;;2.80;78.82
74578;BME280;63173;49.086;33.418;2022-10-16T06:01:35;102033.81;;;3.00;78.71
74578;BME280;63173;49.086;33.418;2022-10-16T06:04:01;102035.50;;;3.07;78.45
74578;BME280;63173;49.086;33.418;2022-10-16T06:06:28;102036.69;;;2.98;78.32
74578;BME280;63173;49.086;33.418;2022-10-16T06:08:56;102035.13;;;3.10;78.67
74578;BME280;63173;49.086;33.418;2022-10-16T06:11:24;102032.47;;;3.17;78.61
74578;BME280;63173;49.086;33.418;2022-10-16T06:13:51;102034.25;;;3.31;77.32
74578;BME280;63173;49.086;33.418;2022-10-16T06:16:17;102034.06;;;3.39;78.05
74578;BME280;63173;49.086;33.418;2022-10-16T06:18:42;102043.59;;;3.41;77.35
74578;BME280;63173;49.086;33.418;2022-10-16T06:21:12;102040.63;;;3.64;77.79
74578;BME280;63173;49.086;33.418;2022-10-16T06:23:39;102047.31;;;3.81;76.51
74578;BME280;63173;49.086;33.418;2022-10-16T06:26:15;102053.38;;;3.96;75.58
74578;BME280;63173;49.086;33.418;2022-10-16T06:28:40;102053.59;;;3.95;77.06
74578;BME280;63173;49.086;33.418;2022-10-16T06:31:07;102047.22;;;4.02;76.27
74578;BME280;63173;49.086;33.418;2022-10-16T06:33:33;102042.50;;;4.17;75.25
74578;BME280;63173;49.086;33.418;2022-10-16T06:36:10;102041.13;;;4.41;75.61
74578;BME280;63173;49.086;33.418;2022-10-16T06:38:38;102041.75;;;4.62;73.50
74578;BME280;63173;49.086;33.418;2022-10-16T06:41:05;102047.16;;;4.69;73.70
74578;BME280;63173;49.086;33.418;2022-10-16T06:43:31;102042.41;;;4.71;74.06
74578;BME280;63173;49.086;33.418;2022-10-16T06:45:58;102049.66;;;4.90;74.91
74578;BME280;63173;49.086;33.418;2022-10-16T06:48:24;102043.63;;;4.95;74.44
74578;BME280;63173;49.086;33.418;2022-10-16T06:53:34;102042.19;;;5.12;73.12
74578;BME280;63173;49.086;33.418;2022-10-16T06:56:11;102041.16;;;5.26;74.34
74578;BME280;63173;49.086;33.418;2022-10-16T06:58:37;102039.63;;;5.49;72.62
74578;BME280;63173;49.086;33.418;2022-10-16T07:01:03;102048.50;;;5.69;72.11
74578;BME280;63173;49.086;33.418;2022-10-16T07:03:29;102047.44;;;5.77;72.40
74578;BME280;63173;49.086;33.418;2022-10-16T07:05:55;102045.97;;;5.94;72.09
74578;BME280;63173;49.086;33.418;2022-10-16T07:08:20;102050.84;;;6.17;71.55
74578;BME280;63173;49.086;33.418;2022-10-16T07:10:46;102044.69;;;6.34;70.44
74578;BME280;63173;49.086;33.418;2022-10-16T07:13:11;102042.28;;;6.26;70.38
74578;BME280;63173;49.086;33.418;2022-10-16T07:15:40;102042.59;;;6.43;69.72
74578;BME280;63173;49.086;33.418;2022-10-16T07:18:06;102039.47;;;6.71;69.38
74578;BME280;63173;49.086;33.418;2022-10-16T07:20:32;102041.78;;;6.98;68.00
74578;BME280;63173;49.086;33.418;2022-10-16T07:22:58;102040.25;;;7.02;68.24
74578;BME280;63173;49.086;33.418;2022-10-16T07:25:23;102047.53;;;7.26;67.18
74578;BME280;63173;49.086;33.418;2022-10-16T07:27:49;102044.16;;;7.31;68.15
74578;BME280;63173;49.086;33.418;2022-10-16T07:30:14;102039.81;;;7.48;66.66
74578;BME280;63173;49.086;33.418;2022-10-16T07:32:40;102045.22;;;7.30;67.92
74578;BME280;63173;49.086;33.418;2022-10-16T07:35:06;102044.72;;;7.57;66.94
74578;BME280;63173;49.086;33.418;2022-10-16T07:37:31;102054.63;;;7.63;66.39
74578;BME280;63173;49.086;33.418;2022-10-16T07:39:57;102058.13;;;7.46;66.30
74578;BME280;63173;49.086;33.418;2022-10-16T07:42:22;102052.53;;;8.02;65.91
74578;BME280;63173;49.086;33.418;2022-10-16T07:44:48;102053.19;;;8.15;64.67
74578;BME280;63173;49.086;33.418;2022-10-16T07:47:13;102054.81;;;8.16;64.25
74578;BME280;63173;49.086;33.418;2022-10-16T07:49:39;102057.69;;;8.03;65.30
74578;BME280;63173;49.086;33.418;2022-10-16T07:52:04;102040.50;;;8.45;64.04
74578;BME280;63173;49.086;33.418;2022-10-16T07:54:29;102045.88;;;8.34;63.76
74578;BME280;63173;49.086;33.418;2022-10-16T07:56:55;102041.31;;;8.46;63.01
74578;BME280;63173;49.086;33.418;2022-10-16T07:59:20;102039.19;;;8.48;63.20
74578;BME280;63173;49.086;33.418;2022-10-16T08:01:46;102039.41;;;8.88;62.28
74578;BME280;63173;49.086;33.418;2022-10-16T08:04:11;102036.97;;;8.98;62.00
74578;BME280;63173;49.086;33.418;2022-10-16T08:06:38;102044.16;;;9.50;61.36
74578;BME280;63173;49.086;33.418;2022-10-16T08:09:05;102035.22;;;9.49;60.95
74578;BME280;63173;49.086;33.418;2022-10-16T08:11:31;102040.25;;;9.69;60.25
74578;BME280;63173;49.086;33.418;2022-10-16T08:13:56;102035.22;;;9.38;61.64
74578;BME280;63173;49.086;33.418;2022-10-16T08:16:22;102033.72;;;9.93;59.04
74578;BME280;63173;49.086;33.418;2022-10-16T08:18:47;102037.38;;;9.99;59.11
74578;BME280;63173;49.086;33.418;2022-10-16T08:21:15;102035.34;;;9.94;58.59
74578;BME280;63173;49.086;33.418;2022-10-16T08:23:41;102032.84;;;9.30;59.27
74578;BME280;63173;49.086;33.418;2022-10-16T08:26:08;102038.63;;;9.57;58.71
74578;BME280;63173;49.086;33.418;2022-10-16T08:28:34;102037.31;;;9.71;57.85
74578;BME280;63173;49.086;33.418;2022-10-16T08:31:14;102035.56;;;10.04;58.16
74578;BME280;63173;49.086;33.418;2022-10-16T08:33:42;102044.66;;;9.98;56.86
74578;BME280;63173;49.086;33.418;2022-10-16T08:36:09;102051.88;;;10.44;57.61
74578;BME280;63173;49.086;33.418;2022-10-16T08:38:34;102043.53;;;10.51;56.48
74578;BME280;63173;49.086;33.418;2022-10-16T08:41:23;102044.34;;;10.34;55.13
74578;BME280;63173;49.086;33.418;2022-10-16T08:49:55;102047.31;;;10.33;56.27
74578;BME280;63173;49.086;33.418;2022-10-16T08:52:22;102050.28;;;11.09;54.74
74578;BME280;63173;49.086;33.418;2022-10-16T08:54:51;102043.84;;;11.15;52.71
74578;BME280;63173;49.086;33.418;2022-10-16T08:57:21;102050.84;;;11.83;51.17
74578;BME280;63173;49.086;33.418;2022-10-16T08:59:47;102051.94;;;11.82;50.32
74578;BME280;63173;49.086;33.418;2022-10-16T09:02:24;102051.72;;;11.67;50.33
74578;BME280;63173;49.086;33.418;2022-10-16T09:07:32;102050.59;;;11.13;52.18
74578;BME280;63173;49.086;33.418;2022-10-16T09:12:59;102052.03;;;11.70;50.85
74578;BME280;63173;49.086;33.418;2022-10-16T09:15:40;102035.38;;;12.10;49.28
74578;BME280;63173;49.086;33.418;2022-10-16T09:21:17;102032.72;;;12.15;49.37
74578;BME280;63173;49.086;33.418;2022-10-16T09:23:45;102039.88;;;12.21;49.75
74578;BME280;63173;49.086;33.418;2022-10-16T09:26:12;102028.97;;;12.21;47.70
74578;BME280;63173;49.086;33.418;2022-10-16T09:28:39;102032.44;;;11.90;49.91
74578;BME280;63173;49.086;33.418;2022-10-16T09:31:04;102027.88;;;11.95;49.52
74578;BME280;63173;49.086;33.418;2022-10-16T09:33:37;102038.66;;;12.34;48.89
74578;BME280;63173;49.086;33.418;2022-10-16T09:36:05;102035.22;;;12.43;47.97
74578;BME280;63173;49.086;33.418;2022-10-16T09:38:35;102023.53;;;12.48;47.98
74578;BME280;63173;49.086;33.418;2022-10-16T09:43:39;102021.25;;;12.66;46.91
74578;BME280;63173;49.086;33.418;2022-10-16T09:46:08;102030.81;;;12.37;47.89
74578;BME280;63173;49.086;33.418;2022-10-16T09:48:49;102008.03;;;13.11;46.93
74578;BME280;63173;49.086;33.418;2022-10-16T09:51:27;102012.06;;;13.41;45.22
74578;BME280;63173;49.086;33.418;2022-10-16T09:56:36;102016.78;;;14.17;44.47
74578;BME280;63173;49.086;33.418;2022-10-16T09:59:13;102003.94;;;14.23;42.13
74578;BME280;63173;49.086;33.418;2022-10-16T10:01:39;102001.25;;;14.33;42.83
74578;BME280;63173;49.086;33.418;2022-10-16T10:04:06;101997.31;;;14.03;43.20
74578;BME280;63173;49.086;33.418;2022-10-16T10:06:36;101996.53;;;14.13;43.60
74578;BME280;63173;49.086;33.418;2022-10-16T10:09:15;102003.28;;;13.34;45.44
74578;BME280;63173;49.086;33.418;2022-10-16T10:14:32;101988.69;;;15.22;41.44
74578;BME280;63173;49.086;33.418;2022-10-16T10:17:24;101984.19;;;15.71;40.12
74578;BME280;63173;49.086;33.418;2022-10-16T10:19:51;101984.06;;;14.52;42.66
74578;BME280;63173;49.086;33.418;2022-10-16T10:22:22;101983.81;;;14.64;42.48
74578;BME280;63173;49.086;33.418;2022-10-16T10:24:56;101982.69;;;13.63;43.31
74578;BME280;63173;49.086;33.418;2022-10-16T10:27:26;101969.28;;;14.33;42.86
74578;BME280;63173;49.086;33.418;2022-10-16T10:30:01;101977.50;;;15.14;40.67
74578;BME280;63173;49.086;33.418;2022-10-16T10:32:43;101976.84;;;14.11;42.90
74578;BME280;63173;49.086;33.418;2022-10-16T10:44:30;101962.47;;;14.56;43.00
74578;BME280;63173;49.086;33.418;2022-10-16T10:47:30;101962.72;;;15.09;42.45
74578;BME280;63173;49.086;33.418;2022-10-16T10:50:22;101962.69;;;15.15;41.02
74578;BME280;63173;49.086;33.418;2022-10-16T11:06:59;101957.25;;;15.88;40.31
74578;BME280;63173;49.086;33.418;2022-10-16T11:09:35;101959.63;;;15.51;40.17
74578;BME280;63173;49.086;33.418;2022-10-16T11:15:17;101956.59;;;15.53;40.79
74578;BME280;63173;49.086;33.418;2022-10-16T11:23:16;101950.59;;;17.34;37.49
74578;BME280;63173;49.086;33.418;2022-10-16T11:25:43;101944.03;;;15.32;41.07
74578;BME280;63173;49.086;33.418;2022-10-16T11:28:14;101944.56;;;15.39;40.16
74578;BME280;63173;49.086;33.418;2022-10-16T11:30:48;101938.44;;;15.72;40.26
74578;BME280;63173;49.086;33.418;2022-10-16T11:38:29;101933.09;;;16.39;36.96
74578;BME280;63173;49.086;33.418;2022-10-16T11:41:00;101944.13;;;15.80;38.15
74578;BME280;63173;49.086;33.418;2022-10-16T11:43:34;101935.69;;;17.88;35.38
74578;BME280;63173;49.086;33.418;2022-10-16T11:46:09;101938.03;;;16.76;37.98
74578;BME280;63173;49.086;33.418;2022-10-16T11:49:00;101921.13;;;17.87;35.24
74578;BME280;63173;49.086;33.418;2022-10-16T11:51:38;101919.56;;;19.01;34.06
74578;BME280;63173;49.086;33.418;2022-10-16T12:56:24;101922.97;;;21.91;28.07
74578;BME280;63173;49.086;33.418;2022-10-16T13:19:24;101922.59;;;21.27;28.81
74578;BME280;63173;49.086;33.418;2022-10-16T13:22:08;101921.38;;;21.50;28.41
74578;BME280;63173;49.086;33.418;2022-10-16T13:24:52;101930.94;;;21.84;28.80
74578;BME280;63173;49.086;33.418;2022-10-16T13:28:03;101933.41;;;22.02;27.76
74578;BME280;63173;49.086;33.418;2022-10-16T13:30:29;101933.75;;;22.18;27.77
74578;BME280;63173;49.086;33.418;2022-10-16T13:33:12;101935.84;;;22.21;27.24
74578;BME280;63173;49.086;33.418;2022-10-16T13:35:56;101936.84;;;22.76;26.79
74578;BME280;63173;49.086;33.418;2022-10-16T13:38:22;101940.75;;;22.15;28.08
74578;BME280;63173;49.086;33.418;2022-10-16T13:40:58;101949.81;;;21.42;28.44
74578;BME280;63173;49.086;33.418;2022-10-16T13:43:49;101949.34;;;21.97;27.55
74578;BME280;63173;49.086;33.418;2022-10-16T13:46:20;101955.56;;;21.15;29.46
74578;BME280;63173;49.086;33.418;2022-10-16T13:49:11;101957.97;;;21.95;27.80
74578;BME280;63173;49.086;33.418;2022-10-16T13:51:37;101963.75;;;21.77;28.02
74578;BME280;63173;49.086;33.418;2022-10-16T13:54:02;101964.94;;;21.45;29.06
74578;BME280;63173;49.086;33.418;2022-10-16T13:56:30;101958.41;;;21.80;28.27
74578;BME280;63173;49.086;33.418;2022-10-16T13:59:06;101958.69;;;21.22;28.46
74578;BME280;63173;49.086;33.418;2022-10-16T14:01:35;101973.00;;;21.24;28.49
74578;BME280;63173;49.086;33.418;2022-10-16T14:04:08;101971.03;;;21.56;28.93
74578;BME280;63173;49.086;33.418;2022-10-16T14:06:35;101981.94;;;20.77;30.32
74578;BME280;63173;49.086;33.418;2022-10-16T14:09:05;101988.94;;;21.27;29.53
74578;BME280;63173;49.086;33.418;2022-10-16T14:11:32;101996.63;;;20.86;29.74
74578;BME280;63173;49.086;33.418;2022-10-16T14:13:59;101998.56;;;20.86;30.19
74578;BME280;63173;49.086;33.418;2022-10-16T14:16:27;101985.81;;;20.05;30.87
74578;BME280;63173;49.086;33.418;2022-10-16T14:19:02;101984.03;;;18.49;33.84
74578;BME280;63173;49.086;33.418;2022-10-16T14:21:29;101980.88;;;19.52;32.03
74578;BME280;63173;49.086;33.418;2022-10-16T14:23:55;101989.75;;;19.17;32.70
74578;BME280;63173;49.086;33.418;2022-10-16T14:26:26;101978.00;;;19.44;33.49
74578;BME280;63173;49.086;33.418;2022-10-16T14:29:12;101992.63;;;19.12;32.83
74578;BME280;63173;49.086;33.418;2022-10-16T14:31:39;101984.63;;;18.97;33.48
74578;BME280;63173;49.086;33.418;2022-10-16T14:34:26;101979.03;;;18.33;35.09
74578;BME280;63173;49.086;33.418;2022-10-16T14:36:53;101967.94;;;17.82;35.67
74578;BME280;63173;49.086;33.418;2022-10-16T14:39:20;101973.41;;;17.35;36.29
74578;BME280;63173;49.086;33.418;2022-10-16T14:41:51;101981.81;;;16.91;37.22
74578;BME280;63173;49.086;33.418;2022-10-16T14:44:18;101980.28;;;16.36;39.83
74578;BME280;63173;49.086;33.418;2022-10-16T14:46:44;101986.78;;;16.01;40.84
74578;BME280;63173;49.086;33.418;2022-10-16T14:51:36;101974.19;;;15.27;41.90
74578;BME280;63173;49.086;33.418;2022-10-16T14:54:03;101971.16;;;15.28;41.73
74578;BME280;63173;49.086;33.418;2022-10-16T14:56:50;101975.28;;;14.40;42.98
74578;BME280;63173;49.086;33.418;2022-10-16T14:59:19;101974.41;;;14.14;44.47
74578;BME280;63173;49.086;33.418;2022-10-16T15:01:47;101980.97;;;14.24;44.13
74578;BME280;63173;49.086;33.418;2022-10-16T15:04:13;101980.09;;;14.03;44.47
74578;BME280;63173;49.086;33.418;2022-10-16T15:06:39;101982.03;;;14.07;45.55
74578;BME280;63173;49.086;33.418;2022-10-16T15:09:05;101975.66;;;13.82;46.11
74578;BME280;63173;49.086;33.418;2022-10-16T15:11:32;101981.38;;;13.23;46.93
74578;BME280;63173;49.086;33.418;2022-10-16T15:13:58;101986.44;;;13.47;46.82
74578;BME280;63173;49.086;33.418;2022-10-16T15:16:24;101978.31;;;13.57;46.33
74578;BME280;63173;49.086;33.418;2022-10-16T15:18:49;101985.03;;;13.44;46.24
74578;BME280;63173;49.086;33.418;2022-10-16T15:21:24;101988.25;;;13.36;46.88
74578;BME280;63173;49.086;33.418;2022-10-16T15:23:50;101992.47;;;13.07;47.68
74578;BME280;63173;49.086;33.418;2022-10-16T15:26:16;101999.59;;;13.13;47.33
74578;BME280;63173;49.086;33.418;2022-10-16T15:28:41;102012.56;;;13.01;48.38
74578;BME280;63173;49.086;33.418;2022-10-16T15:31:07;102009.47;;;13.19;48.01
74578;BME280;63173;49.086;33.418;2022-10-16T15:33:32;102013.09;;;12.66;48.86
74578;BME280;63173;49.086;33.418;2022-10-16T15:36:00;102005.75;;;12.40;49.79
74578;BME280;63173;49.086;33.418;2022-10-16T15:38:27;102007.28;;;12.58;48.89